createdAt,value
2023-03-13T00:02:14.004Z,11.60
2023-03-13T00:04:42.400Z,11.58
2023-03-13T00:07:11.333Z,11.57
2023-03-13T00:09:39.844Z,11.51
2023-03-13T00:12:08.913Z,11.57
2023-03-13T00:14:37.288Z,11.52
2023-03-13T00:17:05.679Z,11.53
2023-03-13T00:19:35.415Z,11.52
2023-03-13T00:22:03.704Z,11.44
2023-03-13T00:24:32.014Z,11.50
2023-03-13T00:27:03.274Z,11.51
2023-03-13T00:29:31.855Z,11.54
2023-03-13T00:32:00.174Z,11.53
2023-03-13T00:34:28.782Z,11.50
2023-03-13T00:36:58.487Z,11.48
2023-03-13T00:39:26.911Z,11.53
2023-03-13T00:41:55.156Z,11.46
2023-03-13T00:44:23.417Z,11.60
2023-03-13T00:46:51.655Z,11.60
2023-03-13T00:49:19.954Z,11.64
2023-03-13T00:51:48.279Z,11.68
2023-03-13T00:54:18.149Z,11.65
2023-03-13T00:56:46.574Z,11.67
2023-03-13T00:59:15.991Z,11.69
2023-03-13T01:01:44.366Z,11.55
2023-03-13T01:04:13.980Z,11.81
2023-03-13T01:06:43.730Z,11.83
2023-03-13T01:09:15.334Z,11.82
2023-03-13T01:11:46.724Z,11.88
2023-03-13T01:14:17.989Z,11.86
2023-03-13T01:16:46.621Z,11.87
2023-03-13T01:19:17.128Z,11.85
2023-03-13T01:21:47.762Z,11.89
2023-03-13T01:24:16.939Z,11.87
2023-03-13T01:26:46.625Z,11.91
2023-03-13T01:29:17.086Z,11.94
2023-03-13T01:31:45.372Z,11.99
2023-03-13T01:34:13.857Z,11.94
2023-03-13T01:36:42.205Z,12.03
2023-03-13T01:39:10.501Z,12.05
2023-03-13T01:41:39.505Z,12.04
2023-03-13T01:44:23.753Z,12.04
2023-03-13T01:46:53.160Z,12.06
2023-03-13T01:49:33.370Z,11.95
2023-03-13T01:52:14.686Z,12.14
2023-03-13T01:54:54.531Z,12.12
2023-03-13T01:57:27.091Z,12.18
2023-03-13T02:00:00.670Z,12.17
2023-03-13T02:02:30.835Z,12.10
2023-03-13T02:05:02.941Z,12.25
2023-03-13T02:07:36.314Z,12.34
2023-03-13T02:10:06.150Z,12.34
2023-03-13T02:12:37.324Z,12.35
2023-03-13T02:15:11.684Z,12.44
2023-03-13T02:17:41.311Z,12.44
2023-03-13T02:20:13.011Z,12.35
2023-03-13T02:22:48.745Z,12.46
2023-03-13T02:25:33.771Z,12.45
2023-03-13T02:28:06.599Z,12.48
2023-03-13T02:30:38.902Z,12.42
2023-03-13T02:33:07.538Z,12.53
2023-03-13T02:35:38.055Z,12.37
2023-03-13T02:38:14.250Z,12.52
2023-03-13T02:40:46.626Z,12.57
2023-03-13T02:43:19.654Z,12.51
2023-03-13T02:46:06.363Z,12.56
2023-03-13T02:48:40.205Z,12.64
2023-03-13T02:51:17.649Z,12.65
2023-03-13T02:53:48.150Z,12.70
2023-03-13T02:56:21.481Z,12.72
2023-03-13T02:58:50.810Z,12.72
2023-03-13T03:01:23.107Z,12.79
2023-03-13T03:03:51.969Z,12.82
2023-03-13T03:06:20.598Z,12.90
2023-03-13T03:08:49.505Z,12.91
2023-03-13T03:11:19.373Z,12.99
2023-03-13T03:13:52.516Z,12.99
2023-03-13T03:16:21.079Z,12.97
2023-03-13T03:18:49.786Z,13.03
2023-03-13T03:21:18.243Z,13.06
2023-03-13T03:23:46.686Z,13.03
2023-03-13T03:26:14.996Z,13.08
2023-03-13T03:28:44.774Z,13.11
2023-03-13T03:31:16.860Z,13.14
2023-03-13T03:33:46.570Z,13.08
2023-03-13T03:36:20.710Z,13.06
2023-03-13T03:38:50.469Z,13.09
2023-03-13T03:41:22.229Z,13.01
2023-03-13T03:43:52.039Z,13.05
2023-03-13T03:46:24.722Z,13.07
2023-03-13T03:48:53.304Z,13.14
2023-03-13T03:51:22.731Z,13.08
2023-03-13T03:53:51.252Z,13.08
2023-03-13T03:56:19.590Z,13.09
2023-03-13T03:58:54.308Z,13.17
2023-03-13T04:01:28.516Z,13.14
2023-03-13T04:03:56.853Z,13.16
2023-03-13T04:06:25.211Z,13.15
2023-03-13T04:08:53.638Z,13.21
2023-03-13T04:11:24.698Z,13.08
2023-03-13T04:13:57.321Z,13.10
2023-03-13T04:16:26.423Z,13.10
2023-03-13T04:18:56.377Z,13.15
2023-03-13T04:21:27.274Z,13.17
2023-03-13T04:24:15.877Z,13.15
2023-03-13T04:26:45.971Z,13.19
2023-03-13T04:29:17.004Z,13.22
2023-03-13T04:31:53.578Z,13.21
2023-03-13T04:34:31.058Z,13.16
2023-03-13T04:37:20.222Z,13.21
2023-03-13T04:40:12.656Z,13.23
2023-03-13T04:42:41.354Z,13.33
2023-03-13T04:45:29.378Z,13.24
2023-03-13T04:48:16.407Z,13.28
2023-03-13T04:50:52.969Z,13.32
2023-03-13T04:53:29.555Z,13.35
2023-03-13T04:56:41.496Z,13.24
2023-03-13T04:59:25.381Z,13.34
2023-03-13T05:02:00.811Z,13.35
2023-03-13T05:04:52.454Z,13.37
2023-03-13T05:07:28.576Z,13.40
2023-03-13T05:10:07.032Z,13.38
2023-03-13T05:12:45.929Z,13.44
2023-03-13T05:15:27.389Z,13.46
2023-03-13T05:18:17.027Z,13.51
2023-03-13T05:20:59.832Z,13.55
2023-03-13T05:23:36.853Z,13.57
2023-03-13T05:26:18.454Z,13.56
2023-03-13T05:29:12.643Z,13.65
2023-03-13T05:31:57.120Z,13.69
2023-03-13T05:34:46.811Z,13.74
2023-03-13T05:37:33.794Z,13.74
2023-03-13T05:40:20.821Z,13.72
2023-03-13T05:43:09.271Z,13.61
2023-03-13T05:46:03.468Z,13.79
2023-03-13T05:49:01.000Z,13.78
2023-03-13T05:51:30.709Z,13.82
2023-03-13T05:54:25.245Z,13.84
2023-03-13T05:57:05.608Z,13.84
2023-03-13T05:59:40.345Z,13.87
2023-03-13T06:02:34.936Z,13.85
2023-03-13T06:05:06.144Z,13.84
2023-03-13T06:07:35.872Z,13.88
2023-03-13T06:10:06.088Z,13.84
2023-03-13T06:12:36.059Z,13.76
2023-03-13T06:15:07.234Z,13.67
2023-03-13T06:17:59.043Z,13.68
2023-03-13T06:20:27.473Z,13.55
2023-03-13T06:22:57.106Z,13.51
2023-03-13T06:25:25.521Z,13.48
2023-03-13T06:27:53.776Z,13.45
2023-03-13T06:30:22.222Z,13.43
2023-03-13T06:32:51.149Z,13.36
2023-03-13T06:35:19.460Z,13.41
2023-03-13T06:37:47.793Z,13.31
2023-03-13T06:40:17.696Z,13.20
2023-03-13T06:42:46.084Z,13.22
2023-03-13T06:45:14.382Z,13.19
2023-03-13T06:47:42.635Z,13.19
2023-03-13T06:50:12.464Z,13.13
2023-03-13T06:52:44.243Z,13.14
2023-03-13T06:55:13.713Z,13.00
2023-03-13T06:57:43.385Z,13.19
2023-03-13T07:00:13.338Z,13.18
2023-03-13T07:02:41.603Z,13.19
2023-03-13T07:05:10.824Z,13.19
2023-03-13T07:07:39.166Z,13.24
2023-03-13T07:10:10.521Z,13.16
2023-03-13T07:12:39.449Z,13.15
2023-03-13T07:15:10.311Z,13.17
2023-03-13T07:17:38.924Z,13.16
2023-03-13T07:20:10.594Z,13.18
2023-03-13T07:22:39.100Z,13.22
2023-03-13T07:25:09.552Z,13.25
2023-03-13T07:27:38.543Z,13.24
2023-03-13T07:30:10.088Z,13.25
2023-03-13T07:32:38.463Z,13.30
2023-03-13T07:35:07.846Z,13.39
2023-03-13T07:37:36.154Z,13.46
2023-03-13T07:40:05.705Z,13.47
2023-03-13T07:42:34.029Z,13.50
2023-03-13T07:45:02.413Z,13.50
2023-03-13T07:47:32.137Z,13.54
2023-03-13T07:50:00.425Z,13.76
2023-03-13T07:52:28.923Z,13.89
2023-03-13T07:54:57.280Z,13.88
2023-03-13T07:57:25.571Z,13.94
2023-03-13T07:59:53.891Z,13.97
2023-03-13T08:02:22.329Z,13.86
2023-03-13T08:04:55.590Z,13.83
2023-03-13T08:07:25.218Z,13.88
2023-03-13T08:09:53.443Z,13.84
2023-03-13T08:12:21.713Z,13.79
2023-03-13T08:14:49.997Z,13.76
2023-03-13T08:17:18.397Z,13.83
2023-03-13T08:19:46.673Z,13.90
2023-03-13T08:22:16.279Z,13.87
2023-03-13T08:24:44.637Z,13.84
2023-03-13T08:27:12.935Z,13.92
2023-03-13T08:29:41.250Z,13.79
2023-03-13T08:32:09.910Z,14.03
2023-03-13T08:34:39.789Z,14.10
2023-03-13T08:37:08.037Z,14.40
2023-03-13T08:39:37.948Z,14.79
2023-03-13T08:42:06.422Z,15.04
2023-03-13T08:44:34.708Z,15.26
2023-03-13T08:47:03.320Z,15.53
2023-03-13T08:49:31.631Z,15.70
2023-03-13T08:52:00.694Z,15.51
2023-03-13T08:54:29.018Z,15.35
2023-03-13T08:56:59.866Z,15.41
2023-03-13T08:59:29.704Z,15.26
2023-03-13T09:01:58.231Z,15.32
2023-03-13T09:04:26.572Z,15.19
2023-03-13T09:06:55.305Z,15.12
2023-03-13T09:09:24.649Z,15.12
2023-03-13T09:11:54.144Z,15.23
2023-03-13T09:14:23.834Z,15.38
2023-03-13T09:16:52.182Z,15.39
2023-03-13T09:19:20.460Z,15.36
2023-03-13T09:21:49.356Z,15.23
2023-03-13T09:24:17.825Z,15.16
2023-03-13T09:27:00.156Z,15.31
2023-03-13T09:29:30.915Z,15.67
2023-03-13T09:31:59.857Z,15.70
2023-03-13T09:34:28.233Z,15.67
2023-03-13T09:36:56.508Z,15.70
2023-03-13T09:39:24.813Z,15.66
2023-03-13T09:42:01.506Z,15.47
2023-03-13T09:44:39.113Z,15.51
2023-03-13T09:47:12.879Z,15.46
2023-03-13T09:49:43.901Z,15.49
2023-03-13T09:52:18.547Z,15.50
2023-03-13T09:54:51.155Z,15.53
2023-03-13T09:57:26.511Z,15.52
2023-03-13T10:00:00.477Z,15.54
2023-03-13T10:02:34.086Z,15.35
2023-03-13T10:05:15.346Z,15.50
2023-03-13T10:07:43.855Z,15.61
2023-03-13T10:10:18.013Z,15.69
2023-03-13T10:12:49.227Z,15.66
2023-03-13T10:15:32.098Z,15.52
2023-03-13T10:18:03.262Z,15.58
2023-03-13T10:20:36.592Z,14.95
2023-03-13T10:23:09.327Z,15.54
2023-03-13T10:25:39.453Z,15.55
2023-03-13T10:28:12.410Z,15.66
2023-03-13T10:30:48.559Z,15.65
2023-03-13T10:33:28.622Z,15.69
2023-03-13T10:36:08.453Z,15.58
2023-03-13T10:38:49.690Z,15.62
2023-03-13T10:41:31.053Z,15.76
2023-03-13T10:44:02.948Z,16.04
2023-03-13T10:46:35.826Z,16.31
2023-03-13T10:49:06.343Z,16.69
2023-03-13T10:51:39.526Z,16.61
2023-03-13T10:54:23.640Z,16.60
2023-03-13T10:56:54.254Z,16.18
2023-03-13T10:59:25.312Z,16.24
2023-03-13T11:02:01.432Z,16.51
2023-03-13T11:04:34.804Z,16.62
2023-03-13T11:07:06.274Z,16.45
2023-03-13T11:09:34.629Z,16.58
2023-03-13T11:12:10.831Z,16.69
2023-03-13T11:14:39.792Z,16.77
2023-03-13T11:17:26.981Z,16.82
2023-03-13T11:20:06.999Z,17.03
2023-03-13T11:22:47.769Z,17.14
2023-03-13T11:25:23.173Z,17.15
2023-03-13T11:28:11.013Z,17.31
2023-03-13T11:30:54.752Z,17.42
2023-03-13T11:33:37.486Z,17.26
2023-03-13T11:36:16.463Z,17.39
2023-03-13T11:38:50.210Z,17.28
2023-03-13T11:41:40.179Z,17.61
2023-03-13T11:44:29.352Z,17.73
2023-03-13T11:47:36.901Z,17.90
2023-03-13T11:50:44.879Z,17.78
2023-03-13T11:53:41.936Z,17.41
2023-03-13T11:56:17.090Z,17.03
2023-03-13T11:59:06.882Z,17.09
2023-03-13T12:01:41.025Z,16.91
2023-03-13T12:04:19.484Z,16.72
2023-03-13T12:06:54.029Z,16.66
2023-03-13T12:09:29.043Z,16.87
2023-03-13T12:12:04.444Z,16.99
2023-03-13T12:14:37.515Z,17.00
2023-03-13T12:17:11.253Z,17.08
2023-03-13T12:19:49.202Z,17.27
2023-03-13T12:22:24.417Z,17.14
2023-03-13T12:25:01.193Z,17.08
2023-03-13T12:27:36.355Z,17.17
2023-03-13T12:30:16.549Z,16.93
2023-03-13T12:32:52.360Z,16.98
2023-03-13T12:35:28.810Z,16.99
2023-03-13T12:38:08.075Z,17.07
2023-03-13T12:40:42.947Z,17.20
2023-03-13T12:43:16.266Z,17.21
2023-03-13T12:46:06.647Z,17.19
2023-03-13T12:48:55.021Z,17.01
2023-03-13T12:51:43.860Z,16.92
2023-03-13T12:54:34.401Z,16.92
2023-03-13T12:57:15.646Z,17.02
2023-03-13T12:59:47.771Z,17.01
2023-03-13T13:02:20.758Z,16.83
2023-03-13T13:04:51.851Z,17.05
2023-03-13T13:07:26.801Z,17.07
2023-03-13T13:10:19.470Z,17.03
2023-03-13T13:13:18.923Z,16.84
2023-03-13T13:15:49.110Z,16.74
2023-03-13T13:18:28.556Z,16.76
2023-03-13T13:21:26.381Z,16.68
2023-03-13T13:23:56.594Z,16.49
2023-03-13T13:26:53.036Z,16.36
2023-03-13T13:29:58.050Z,16.35
2023-03-13T13:32:43.052Z,16.36
2023-03-13T13:35:40.803Z,16.52
2023-03-13T13:38:36.817Z,16.43
2023-03-13T13:41:26.703Z,16.49
2023-03-13T13:44:22.995Z,16.49
2023-03-13T13:46:51.664Z,16.55
2023-03-13T13:49:21.233Z,16.49
2023-03-13T13:52:33.748Z,16.49
2023-03-13T13:55:03.644Z,16.44
2023-03-13T13:57:35.855Z,16.48
2023-03-13T14:00:22.307Z,16.49
2023-03-13T14:02:53.917Z,16.55
2023-03-13T14:05:26.801Z,16.37
2023-03-13T14:08:02.027Z,16.50
2023-03-13T14:10:40.817Z,16.30
2023-03-13T14:13:19.095Z,16.24
2023-03-13T14:15:52.815Z,16.48
2023-03-13T14:18:25.447Z,16.44
2023-03-13T14:20:59.412Z,16.56
2023-03-13T14:23:42.106Z,16.43
2023-03-13T14:26:17.882Z,16.51
2023-03-13T14:28:49.294Z,16.28
2023-03-13T14:31:31.525Z,16.42
2023-03-13T14:34:03.428Z,16.38
2023-03-13T14:36:32.273Z,16.42
2023-03-13T14:39:01.400Z,16.39
2023-03-13T14:41:37.492Z,16.43
2023-03-13T14:44:11.604Z,16.34
2023-03-13T14:46:43.632Z,15.70
2023-03-13T14:49:20.641Z,16.12
2023-03-13T14:52:00.252Z,16.21
2023-03-13T14:54:32.594Z,16.20
2023-03-13T14:57:07.714Z,16.27
2023-03-13T14:59:36.033Z,16.25
2023-03-13T15:02:19.982Z,16.27
2023-03-13T15:04:59.628Z,16.37
2023-03-13T15:07:37.327Z,16.21
2023-03-13T15:10:21.542Z,16.39
2023-03-13T15:12:50.523Z,16.34
2023-03-13T15:15:19.497Z,16.25
2023-03-13T15:17:49.226Z,16.15
2023-03-13T15:20:18.986Z,16.07
2023-03-13T15:22:47.737Z,16.15
2023-03-13T15:25:20.690Z,16.05
2023-03-13T15:27:49.809Z,16.13
2023-03-13T15:30:19.401Z,16.03
2023-03-13T15:32:49.181Z,15.98
2023-03-13T15:35:28.346Z,15.90
2023-03-13T15:37:58.614Z,15.97
2023-03-13T15:40:28.358Z,15.90
2023-03-13T15:42:57.190Z,15.82
2023-03-13T15:45:25.507Z,15.69
2023-03-13T15:47:55.460Z,15.77
2023-03-13T15:50:29.631Z,15.86
2023-03-13T15:52:58.695Z,15.79
2023-03-13T15:55:27.770Z,15.85
2023-03-13T15:57:56.094Z,15.76
2023-03-13T16:00:26.946Z,15.70
2023-03-13T16:02:56.688Z,15.67
2023-03-13T16:05:24.980Z,15.60
2023-03-13T16:07:53.407Z,15.47
2023-03-13T16:10:25.785Z,15.53
2023-03-13T16:12:54.681Z,15.42
2023-03-13T16:15:23.571Z,15.45
2023-03-13T16:17:52.084Z,15.42
2023-03-13T16:20:26.398Z,14.73
2023-03-13T16:22:54.813Z,15.29
2023-03-13T16:25:24.230Z,15.05
2023-03-13T16:27:53.542Z,15.30
2023-03-13T16:30:27.268Z,15.07
2023-03-13T16:32:55.728Z,15.06
2023-03-13T16:35:28.354Z,15.08
2023-03-13T16:37:58.791Z,14.95
2023-03-13T16:40:30.309Z,14.89
2023-03-13T16:42:58.834Z,14.91
2023-03-13T16:45:27.521Z,14.85
2023-03-13T16:47:55.855Z,14.81
2023-03-13T16:50:29.748Z,14.82
2023-03-13T16:52:58.371Z,14.73
2023-03-13T16:55:28.671Z,14.07
2023-03-13T16:57:57.733Z,14.65
2023-03-13T17:00:29.877Z,14.62
2023-03-13T17:02:58.678Z,14.56
2023-03-13T17:05:30.818Z,14.48
2023-03-13T17:07:59.165Z,14.40
2023-03-13T17:10:30.469Z,14.45
2023-03-13T17:12:59.187Z,14.38
2023-03-13T17:15:28.691Z,14.39
2023-03-13T17:17:57.432Z,14.37
2023-03-13T17:20:31.152Z,14.33
2023-03-13T17:23:01.119Z,14.42
2023-03-13T17:25:29.516Z,14.48
2023-03-13T17:27:57.781Z,14.41
2023-03-13T17:30:28.906Z,14.39
2023-03-13T17:32:59.001Z,14.28
2023-03-13T17:35:28.795Z,14.44
2023-03-13T17:37:57.083Z,14.48
2023-03-13T17:40:30.037Z,14.45
2023-03-13T17:42:58.624Z,14.38
2023-03-13T17:45:27.036Z,14.41
2023-03-13T17:47:55.602Z,14.43
2023-03-13T17:50:28.294Z,14.38
2023-03-13T17:52:57.163Z,14.44
2023-03-13T17:55:25.511Z,14.38
2023-03-13T17:57:53.926Z,14.28
2023-03-13T18:00:25.835Z,14.23
2023-03-13T18:02:54.279Z,14.15
2023-03-13T18:05:22.807Z,14.29
2023-03-13T18:07:53.232Z,14.24
2023-03-13T18:10:24.492Z,14.21
2023-03-13T18:12:53.269Z,14.15
2023-03-13T18:15:22.937Z,14.11
2023-03-13T18:17:51.758Z,14.18
2023-03-13T18:20:22.997Z,14.17
2023-03-13T18:22:52.676Z,14.23
2023-03-13T18:25:20.956Z,14.18
2023-03-13T18:27:49.212Z,14.20
2023-03-13T18:30:20.521Z,14.18
2023-03-13T18:32:49.426Z,14.18
2023-03-13T18:35:19.297Z,13.98
2023-03-13T18:37:49.002Z,14.09
2023-03-13T18:40:23.395Z,14.12
2023-03-13T18:42:51.920Z,14.03
2023-03-13T18:45:23.750Z,14.09
2023-03-13T18:47:52.318Z,13.98
2023-03-13T18:50:26.382Z,14.06
2023-03-13T18:52:55.886Z,14.09
2023-03-13T18:55:27.253Z,14.04
2023-03-13T18:57:56.191Z,14.03
2023-03-13T19:00:27.364Z,14.10
2023-03-13T19:02:56.090Z,13.90
2023-03-13T19:05:24.722Z,14.06
2023-03-13T19:07:54.060Z,13.99
2023-03-13T19:10:26.837Z,13.85
2023-03-13T19:12:57.117Z,14.03
2023-03-13T19:15:29.156Z,14.05
2023-03-13T19:18:01.810Z,14.10
2023-03-13T19:20:31.521Z,14.14
2023-03-13T19:23:00.852Z,14.00
2023-03-13T19:25:30.726Z,14.10
2023-03-13T19:27:59.146Z,14.07
2023-03-13T19:30:28.499Z,14.13
2023-03-13T19:32:56.931Z,14.09
2023-03-13T19:35:25.441Z,14.02
2023-03-13T19:37:53.788Z,14.02
2023-03-13T19:40:26.064Z,14.01
2023-03-13T19:42:55.864Z,14.01
2023-03-13T19:45:24.200Z,14.05
2023-03-13T19:47:52.447Z,14.10
2023-03-13T19:50:23.711Z,14.14
2023-03-13T19:52:52.078Z,14.10
2023-03-13T19:55:20.633Z,14.11
2023-03-13T19:57:48.926Z,14.01
2023-03-13T20:00:23.344Z,14.07
2023-03-13T20:02:54.968Z,13.94
2023-03-13T20:05:23.765Z,13.93
2023-03-13T20:07:53.958Z,13.92
2023-03-13T20:10:22.958Z,13.90
2023-03-13T20:12:53.550Z,13.87
2023-03-13T20:15:23.306Z,13.92
2023-03-13T20:17:51.697Z,13.96
2023-03-13T20:20:20.675Z,14.00
2023-03-13T20:22:49.015Z,13.95
2023-03-13T20:25:17.543Z,13.93
2023-03-13T20:27:45.915Z,13.96
2023-03-13T20:30:14.554Z,13.98
2023-03-13T20:32:58.576Z,14.00
2023-03-13T20:35:29.399Z,13.96
2023-03-13T20:37:59.782Z,13.92
2023-03-13T20:40:28.384Z,13.83
2023-03-13T20:42:58.322Z,13.88
2023-03-13T20:45:28.022Z,13.83
2023-03-13T20:47:58.708Z,13.83
2023-03-13T20:50:26.902Z,13.80
2023-03-13T20:52:56.195Z,13.81
2023-03-13T20:55:24.475Z,13.78
2023-03-13T20:57:52.764Z,13.78
2023-03-13T21:00:23.365Z,13.83
2023-03-13T21:02:53.781Z,13.87
2023-03-13T21:05:23.560Z,13.88
2023-03-13T21:07:51.878Z,13.91
2023-03-13T21:10:20.414Z,13.93
2023-03-13T21:12:48.725Z,13.95
2023-03-13T21:15:17.218Z,13.95
2023-03-13T21:17:45.571Z,13.87
2023-03-13T21:20:15.436Z,13.87
2023-03-13T21:22:45.129Z,13.94
2023-03-13T21:25:13.979Z,13.72
2023-03-13T21:27:43.748Z,13.84
2023-03-13T21:30:15.510Z,13.82
2023-03-13T21:32:43.986Z,13.74
2023-03-13T21:35:13.357Z,13.75
2023-03-13T21:37:42.797Z,13.75
2023-03-13T21:40:14.130Z,13.78
2023-03-13T21:42:42.452Z,13.66
2023-03-13T21:45:12.370Z,13.50
2023-03-13T21:47:40.756Z,13.48
2023-03-13T21:50:11.325Z,13.51
2023-03-13T21:52:42.130Z,13.38
2023-03-13T21:55:14.029Z,13.42
2023-03-13T21:57:42.453Z,13.40
2023-03-13T22:00:14.340Z,13.40
2023-03-13T22:02:43.310Z,13.36
2023-03-13T22:05:13.024Z,13.43
2023-03-13T22:07:41.430Z,13.40
2023-03-13T22:10:11.375Z,13.31
2023-03-13T22:12:41.080Z,13.37
2023-03-13T22:15:11.658Z,13.35
2023-03-13T22:17:40.009Z,13.38
2023-03-13T22:20:10.576Z,13.34
2023-03-13T22:22:38.874Z,13.38
2023-03-13T22:25:08.172Z,13.40
2023-03-13T22:27:36.739Z,13.39
2023-03-13T22:30:08.538Z,13.38
2023-03-13T22:32:36.894Z,13.29
2023-03-13T22:35:06.670Z,13.32
2023-03-13T22:37:35.099Z,13.23
2023-03-13T22:40:03.512Z,13.22
2023-03-13T22:42:31.860Z,13.24
2023-03-13T22:45:00.224Z,13.30
2023-03-13T22:47:29.951Z,13.26
2023-03-13T22:49:58.271Z,13.29
2023-03-13T22:52:30.647Z,13.25
2023-03-13T22:54:59.974Z,13.11
2023-03-13T22:57:29.390Z,13.05
2023-03-13T22:59:59.088Z,13.07
2023-03-13T23:02:29.410Z,13.01
2023-03-13T23:05:00.532Z,13.00
2023-03-13T23:07:31.054Z,13.03
2023-03-13T23:09:59.989Z,13.02
2023-03-13T23:12:30.766Z,12.98
2023-03-13T23:15:00.495Z,13.00
2023-03-13T23:17:32.210Z,12.94
2023-03-13T23:20:01.458Z,12.75
2023-03-13T23:22:32.866Z,12.90
2023-03-13T23:25:01.373Z,12.70
2023-03-13T23:27:29.728Z,12.98
2023-03-13T23:29:58.033Z,12.92
2023-03-13T23:32:26.481Z,12.83
2023-03-13T23:34:58.493Z,12.75
2023-03-13T23:37:26.741Z,12.75
2023-03-13T23:39:55.154Z,12.72
2023-03-13T23:42:23.432Z,12.71
2023-03-13T23:44:51.681Z,12.72
2023-03-13T23:47:20.171Z,12.51
2023-03-13T23:49:48.478Z,12.66
2023-03-13T23:52:18.127Z,12.59
2023-03-13T23:54:46.458Z,12.61
2023-03-13T23:57:14.736Z,12.68
2023-03-13T23:59:43.215Z,12.54
